createdAt,value
2022-12-31T00:00:19.532Z,1.30
2022-12-31T00:01:19.444Z,1.30
2022-12-31T00:02:19.466Z,1.20
2022-12-31T00:03:19.576Z,1.10
2022-12-31T00:04:19.373Z,1.10
2022-12-31T00:05:19.364Z,1.20
2022-12-31T00:06:19.355Z,1.30
2022-12-31T00:07:19.369Z,1.30
2022-12-31T00:08:19.323Z,1.00
2022-12-31T00:09:19.334Z,1.20
2022-12-31T00:10:19.293Z,1.10
2022-12-31T00:11:19.306Z,1.20
2022-12-31T00:12:19.270Z,1.20
2022-12-31T00:13:19.505Z,1.20
2022-12-31T00:14:19.235Z,1.10
2022-12-31T00:15:19.230Z,1.40
2022-12-31T00:16:19.297Z,1.30
2022-12-31T00:17:19.210Z,1.30
2022-12-31T00:18:19.226Z,1.30
2022-12-31T00:19:19.185Z,1.60
2022-12-31T00:20:19.165Z,1.30
2022-12-31T00:21:19.162Z,1.30
2022-12-31T00:22:19.163Z,1.30
2022-12-31T00:23:19.130Z,1.30
2022-12-31T00:24:19.115Z,1.30
2022-12-31T00:25:19.114Z,1.30
2022-12-31T00:26:19.113Z,1.10
2022-12-31T00:27:19.085Z,1.10
2022-12-31T00:28:19.075Z,1.30
2022-12-31T00:29:19.053Z,1.30
2022-12-31T00:30:19.035Z,1.30
2022-12-31T00:31:19.149Z,1.20
2022-12-31T00:32:19.014Z,1.30
2022-12-31T00:33:19.004Z,1.30
2022-12-31T00:34:18.990Z,1.50
2022-12-31T00:35:18.966Z,1.40
2022-12-31T00:36:18.982Z,1.20
2022-12-31T00:37:18.946Z,1.30
2022-12-31T00:38:18.936Z,1.40
2022-12-31T00:39:18.917Z,1.60
2022-12-31T00:40:18.911Z,1.40
2022-12-31T00:41:18.915Z,1.30
2022-12-31T00:42:18.876Z,1.50
2022-12-31T00:43:19.125Z,1.30
2022-12-31T00:44:18.841Z,1.20
2022-12-31T00:45:18.836Z,1.40
2022-12-31T00:46:18.947Z,1.40
2022-12-31T00:47:18.837Z,1.30
2022-12-31T00:48:18.799Z,1.30
2022-12-31T00:49:18.794Z,1.30
2022-12-31T00:50:18.777Z,1.20
2022-12-31T00:51:18.785Z,1.40
2022-12-31T00:52:18.754Z,1.20
2022-12-31T00:53:18.741Z,1.40
2022-12-31T00:54:18.731Z,1.40
2022-12-31T00:55:18.734Z,1.20
2022-12-31T00:56:18.695Z,1.30
2022-12-31T00:57:18.674Z,1.50
2022-12-31T00:58:18.666Z,1.40
2022-12-31T00:59:18.657Z,1.50
2022-12-31T01:00:18.897Z,1.40
2022-12-31T01:01:18.808Z,1.40
2022-12-31T01:02:18.780Z,1.60
2022-12-31T01:03:18.633Z,1.60
2022-12-31T01:04:18.582Z,1.30
2022-12-31T01:05:18.563Z,1.50
2022-12-31T01:06:18.586Z,1.50
2022-12-31T01:07:18.552Z,1.30
2022-12-31T01:08:18.540Z,1.30
2022-12-31T01:09:18.550Z,1.40
2022-12-31T01:10:18.503Z,1.50
2022-12-31T01:11:18.501Z,1.30
2022-12-31T01:12:18.501Z,1.30
2022-12-31T01:13:18.465Z,1.50
2022-12-31T01:14:18.460Z,1.60
2022-12-31T01:15:18.444Z,1.50
2022-12-31T01:16:18.457Z,1.40
2022-12-31T01:17:18.420Z,1.40
2022-12-31T01:18:18.412Z,1.40
2022-12-31T01:19:18.389Z,1.60
2022-12-31T01:20:18.402Z,1.20
2022-12-31T01:21:18.399Z,1.30
2022-12-31T01:22:18.594Z,1.40
2022-12-31T01:23:18.362Z,1.30
2022-12-31T01:24:18.348Z,1.20
2022-12-31T01:25:18.308Z,1.20
2022-12-31T01:26:18.313Z,1.50
2022-12-31T01:27:18.279Z,1.40
2022-12-31T01:28:18.277Z,1.40
2022-12-31T01:29:18.272Z,1.40
2022-12-31T01:30:18.256Z,1.40
2022-12-31T01:31:18.273Z,1.40
2022-12-31T01:32:18.226Z,1.20
2022-12-31T01:33:18.223Z,1.40
2022-12-31T01:34:18.208Z,1.10
2022-12-31T01:35:18.178Z,1.30
2022-12-31T01:36:23.542Z,1.30
2022-12-31T01:37:19.162Z,1.30
2022-12-31T01:38:18.147Z,1.40
2022-12-31T01:39:18.127Z,1.40
2022-12-31T01:40:18.114Z,1.50
2022-12-31T01:41:18.113Z,1.30
2022-12-31T01:42:18.130Z,1.20
2022-12-31T01:43:18.076Z,1.40
2022-12-31T01:44:18.058Z,1.30
2022-12-31T01:45:18.061Z,1.30
2022-12-31T01:46:18.066Z,1.40
2022-12-31T01:47:18.030Z,1.40
2022-12-31T01:48:18.007Z,1.40
2022-12-31T01:49:18.005Z,1.50
2022-12-31T01:50:17.993Z,1.40
2022-12-31T01:51:17.976Z,1.40
2022-12-31T01:52:17.963Z,1.40
2022-12-31T01:53:17.953Z,1.20
2022-12-31T01:54:17.933Z,1.40
2022-12-31T01:55:17.983Z,1.20
2022-12-31T01:56:17.917Z,1.30
2022-12-31T01:57:17.890Z,1.40
2022-12-31T01:58:17.880Z,1.30
2022-12-31T01:59:17.877Z,1.40
2022-12-31T02:00:17.915Z,1.20
2022-12-31T02:01:17.915Z,1.10
2022-12-31T02:02:17.960Z,1.20
2022-12-31T02:03:17.826Z,1.30
2022-12-31T02:04:17.805Z,1.20
2022-12-31T02:05:17.794Z,1.40
2022-12-31T02:06:17.791Z,1.40
2022-12-31T02:07:17.758Z,1.30
2022-12-31T02:08:17.762Z,1.50
2022-12-31T02:09:17.733Z,1.20
2022-12-31T02:10:17.728Z,1.40
2022-12-31T02:11:17.709Z,1.30
2022-12-31T02:12:17.695Z,1.60
2022-12-31T02:13:17.683Z,1.50
2022-12-31T02:14:17.669Z,1.30
2022-12-31T02:15:17.660Z,1.20
2022-12-31T02:16:17.683Z,1.30
2022-12-31T02:17:17.657Z,1.50
2022-12-31T02:18:17.607Z,1.30
2022-12-31T02:19:17.602Z,1.30
2022-12-31T02:20:17.587Z,1.40
2022-12-31T02:21:17.589Z,1.30
2022-12-31T02:22:17.569Z,1.20
2022-12-31T02:23:17.551Z,1.30
2022-12-31T02:24:17.532Z,1.30
2022-12-31T02:25:17.538Z,1.40
2022-12-31T02:26:17.531Z,1.40
2022-12-31T02:27:17.500Z,1.50
2022-12-31T02:28:17.492Z,1.50
2022-12-31T02:29:17.471Z,1.40
2022-12-31T02:30:17.464Z,1.30
2022-12-31T02:31:17.536Z,1.50
2022-12-31T02:32:17.445Z,1.40
2022-12-31T02:33:17.423Z,1.30
2022-12-31T02:34:17.410Z,1.20
2022-12-31T02:35:17.391Z,1.30
2022-12-31T02:36:17.404Z,1.30
2022-12-31T02:37:17.378Z,1.30
2022-12-31T02:38:17.354Z,1.40
2022-12-31T02:39:17.338Z,1.40
2022-12-31T02:40:17.349Z,1.50
2022-12-31T02:41:17.326Z,1.40
2022-12-31T02:42:17.559Z,1.20
2022-12-31T02:43:17.299Z,1.40
2022-12-31T02:44:17.288Z,1.20
2022-12-31T02:45:17.264Z,1.20
2022-12-31T02:46:17.314Z,1.20
2022-12-31T02:47:17.238Z,1.10
2022-12-31T02:48:17.225Z,1.30
2022-12-31T02:49:17.213Z,1.30
2022-12-31T02:50:17.202Z,1.20
2022-12-31T02:51:17.188Z,1.30
2022-12-31T02:52:17.403Z,1.10
2022-12-31T02:53:17.159Z,1.10
2022-12-31T02:54:17.159Z,1.20
2022-12-31T02:55:17.137Z,1.20
2022-12-31T02:56:17.130Z,1.10
2022-12-31T02:57:17.119Z,1.20
2022-12-31T02:58:17.095Z,1.30
2022-12-31T02:59:17.090Z,1.30
2022-12-31T03:00:17.069Z,1.30
2022-12-31T03:01:17.203Z,1.10
2022-12-31T03:02:17.185Z,1.30
2022-12-31T03:03:17.026Z,1.20
2022-12-31T03:04:17.021Z,1.30
2022-12-31T03:05:16.993Z,1.40
2022-12-31T03:06:17.016Z,1.10
2022-12-31T03:07:16.982Z,1.10
2022-12-31T03:08:16.969Z,1.10
2022-12-31T03:09:16.974Z,1.10
2022-12-31T03:10:16.949Z,1.20
2022-12-31T03:11:16.928Z,1.10
2022-12-31T03:12:16.913Z,1.00
2022-12-31T03:13:16.907Z,1.10
2022-12-31T03:14:16.880Z,1.10
2022-12-31T03:15:16.864Z,1.20
2022-12-31T03:16:16.950Z,1.10
2022-12-31T03:17:16.842Z,1.10
2022-12-31T03:18:16.825Z,1.10
2022-12-31T03:19:16.806Z,1.10
2022-12-31T03:20:16.810Z,0.90
2022-12-31T03:21:16.805Z,1.00
2022-12-31T03:22:16.780Z,1.00
2022-12-31T03:23:16.766Z,1.00
2022-12-31T03:24:16.755Z,1.20
2022-12-31T03:25:16.737Z,1.10
2022-12-31T03:26:16.751Z,1.10
2022-12-31T03:27:16.709Z,1.00
2022-12-31T03:28:16.704Z,1.00
2022-12-31T03:29:16.686Z,1.10
2022-12-31T03:30:16.690Z,0.90
2022-12-31T03:31:16.744Z,1.00
2022-12-31T03:32:16.638Z,1.10
2022-12-31T03:54:29.145Z,1.00
2022-12-31T03:54:33.889Z,1.00
2022-12-31T03:55:33.876Z,1.00
2022-12-31T03:56:33.876Z,1.10
2022-12-31T03:57:33.849Z,1.00
2022-12-31T03:58:33.840Z,1.00
2022-12-31T03:59:33.816Z,0.90
2022-12-31T04:00:33.828Z,1.00
2022-12-31T04:01:33.897Z,1.10
2022-12-31T04:02:33.854Z,1.20
2022-12-31T04:03:33.769Z,1.20
2022-12-31T04:04:33.768Z,1.10
2022-12-31T04:05:33.794Z,1.10
2022-12-31T04:06:33.739Z,1.10
2022-12-31T04:07:33.713Z,1.00
2022-12-31T04:08:33.721Z,0.90
2022-12-31T04:09:33.728Z,0.90
2022-12-31T04:10:33.689Z,0.90
2022-12-31T04:11:33.681Z,0.90
2022-12-31T04:12:33.677Z,0.90
2022-12-31T04:13:33.640Z,1.10
2022-12-31T04:14:37.466Z,1.00
2022-12-31T04:15:33.619Z,0.90
2022-12-31T04:16:33.641Z,1.00
2022-12-31T04:17:33.586Z,1.00
2022-12-31T04:18:33.572Z,1.20
2022-12-31T04:19:33.578Z,1.10
2022-12-31T04:20:33.548Z,1.40
2022-12-31T04:21:35.345Z,1.20
2022-12-31T04:22:33.537Z,1.20
2022-12-31T04:23:33.510Z,1.10
2022-12-31T04:24:33.505Z,1.00
2022-12-31T04:25:33.487Z,1.00
2022-12-31T04:26:33.497Z,1.20
2022-12-31T04:27:33.459Z,1.20
2022-12-31T04:28:33.449Z,1.10
2022-12-31T04:29:33.450Z,1.20
2022-12-31T04:30:33.422Z,1.00
2022-12-31T04:31:33.474Z,1.10
2022-12-31T04:32:33.397Z,1.10
2022-12-31T04:33:33.377Z,1.10
2022-12-31T04:34:33.381Z,1.00
2022-12-31T04:35:33.358Z,1.10
2022-12-31T04:36:33.386Z,1.20
2022-12-31T04:37:33.328Z,1.30
2022-12-31T04:38:33.332Z,1.10
2022-12-31T04:39:33.308Z,1.00
2022-12-31T04:40:33.295Z,1.00
2022-12-31T04:41:33.295Z,1.20
2022-12-31T04:42:33.258Z,1.00
2022-12-31T04:43:33.247Z,1.10
2022-12-31T04:44:33.242Z,1.10
2022-12-31T04:45:33.241Z,1.00
2022-12-31T04:46:33.227Z,1.10
2022-12-31T04:47:33.200Z,1.10
2022-12-31T04:48:33.190Z,1.20
2022-12-31T04:49:33.173Z,1.10
2022-12-31T04:50:33.169Z,1.20
2022-12-31T04:51:33.151Z,1.60
2022-12-31T04:52:37.174Z,1.30
2022-12-31T04:53:34.112Z,1.40
2022-12-31T04:54:33.107Z,1.40
2022-12-31T04:55:33.095Z,1.10
2022-12-31T04:56:33.137Z,1.20
2022-12-31T04:57:33.068Z,1.00
2022-12-31T04:58:33.056Z,1.10
2022-12-31T04:59:33.056Z,1.40
2022-12-31T05:00:33.030Z,1.10
2022-12-31T05:01:33.202Z,1.10
2022-12-31T05:02:33.072Z,1.30
2022-12-31T05:03:32.997Z,1.10
2022-12-31T05:04:32.979Z,1.10
2022-12-31T05:05:33.196Z,1.10
2022-12-31T05:06:32.967Z,1.20
2022-12-31T05:07:32.925Z,1.20
2022-12-31T05:08:32.927Z,1.30
2022-12-31T05:09:32.924Z,1.30
2022-12-31T05:10:32.922Z,1.50
2022-12-31T05:11:32.898Z,1.30
2022-12-31T05:12:32.866Z,1.60
2022-12-31T05:13:33.616Z,1.30
2022-12-31T05:14:32.871Z,1.30
2022-12-31T05:15:32.825Z,1.30
2022-12-31T05:16:32.845Z,1.30
2022-12-31T05:17:32.802Z,1.40
2022-12-31T05:18:33.040Z,1.30
2022-12-31T05:19:32.794Z,1.10
2022-12-31T05:20:32.794Z,1.10
2022-12-31T05:21:32.763Z,1.30
2022-12-31T05:22:32.754Z,1.40
2022-12-31T05:23:32.737Z,1.20
2022-12-31T05:24:32.722Z,1.40
2022-12-31T05:25:32.693Z,1.30
2022-12-31T05:26:32.708Z,1.40
2022-12-31T05:27:32.680Z,1.30
2022-12-31T05:28:32.725Z,1.30
2022-12-31T05:29:32.653Z,1.20
2022-12-31T05:30:32.701Z,1.20
2022-12-31T05:31:32.645Z,1.20
2022-12-31T05:32:32.612Z,1.10
2022-12-31T05:33:32.594Z,1.00
2022-12-31T05:34:32.587Z,0.90
2022-12-31T05:35:32.578Z,1.00
2022-12-31T05:36:32.570Z,1.00
2022-12-31T05:37:32.535Z,1.40
2022-12-31T05:38:32.533Z,1.00
2022-12-31T05:39:32.536Z,1.20
2022-12-31T05:40:32.509Z,1.10
2022-12-31T05:41:32.504Z,1.10
2022-12-31T05:42:32.481Z,1.20
2022-12-31T05:43:32.463Z,1.10
2022-12-31T05:44:32.466Z,1.20
2022-12-31T05:45:32.440Z,1.20
2022-12-31T05:46:32.535Z,1.20
2022-12-31T05:47:32.413Z,1.10
2022-12-31T05:48:32.408Z,1.30
2022-12-31T05:49:32.397Z,0.90
2022-12-31T05:50:32.392Z,1.00
2022-12-31T05:51:32.380Z,0.90
2022-12-31T05:52:32.359Z,1.00
2022-12-31T05:53:32.339Z,1.00
2022-12-31T05:54:32.328Z,1.00
2022-12-31T05:55:32.317Z,0.90
2022-12-31T05:56:32.321Z,1.10
2022-12-31T05:57:32.286Z,1.30
2022-12-31T05:58:32.264Z,1.00
2022-12-31T05:59:32.264Z,1.10
2022-12-31T06:00:32.251Z,0.90
2022-12-31T06:01:32.396Z,0.90
2022-12-31T06:02:32.254Z,1.10
2022-12-31T06:03:32.254Z,1.10
2022-12-31T06:04:32.193Z,1.20
2022-12-31T06:05:32.181Z,1.10
2022-12-31T06:06:32.182Z,1.00
2022-12-31T06:07:32.169Z,1.00
2022-12-31T06:08:32.141Z,1.10
2022-12-31T06:09:32.130Z,1.10
2022-12-31T06:10:32.110Z,1.00
2022-12-31T06:11:32.124Z,1.00
2022-12-31T06:12:32.078Z,1.10
2022-12-31T06:13:32.078Z,1.10
2022-12-31T06:14:32.055Z,1.10
2022-12-31T06:15:32.107Z,1.30
2022-12-31T06:16:32.062Z,1.00
2022-12-31T06:17:32.036Z,1.10
2022-12-31T06:18:32.009Z,1.10
2022-12-31T06:19:32.001Z,1.00
2022-12-31T06:20:32.015Z,1.20
2022-12-31T06:21:34.078Z,1.40
2022-12-31T06:25:09.442Z,1.30
2022-12-31T06:25:16.607Z,1.20
2022-12-31T06:26:14.181Z,1.20
2022-12-31T06:27:14.159Z,1.00
2022-12-31T06:28:20.039Z,1.10
2022-12-31T06:29:15.134Z,1.00
2022-12-31T06:30:14.117Z,1.30
2022-12-31T06:31:14.144Z,1.00
2022-12-31T06:32:14.082Z,1.30
2022-12-31T06:33:14.326Z,1.10
2022-12-31T06:34:14.072Z,1.10
2022-12-31T06:35:14.050Z,1.30
2022-12-31T06:36:14.123Z,1.10
2022-12-31T06:37:14.029Z,1.20
2022-12-31T06:38:14.001Z,1.20
2022-12-31T06:39:13.994Z,1.80
2022-12-31T06:40:13.991Z,1.20
2022-12-31T06:41:13.994Z,1.00
2022-12-31T06:42:13.952Z,1.10
2022-12-31T06:43:13.962Z,1.30
2022-12-31T06:44:13.932Z,1.10
2022-12-31T06:45:13.941Z,1.20
2022-12-31T06:46:13.974Z,1.20
2022-12-31T06:47:13.901Z,1.20
2022-12-31T06:48:13.877Z,1.30
2022-12-31T06:49:13.872Z,1.30
2022-12-31T06:50:13.854Z,1.20
2022-12-31T06:51:17.210Z,1.20
2022-12-31T06:52:13.828Z,1.30
2022-12-31T06:53:13.818Z,1.20
2022-12-31T06:54:13.810Z,1.40
2022-12-31T06:55:13.808Z,1.50
2022-12-31T06:56:13.789Z,1.30
2022-12-31T06:57:13.775Z,1.40
2022-12-31T06:58:13.749Z,1.50
2022-12-31T06:59:13.744Z,1.50
2022-12-31T07:00:13.721Z,1.30
2022-12-31T07:01:13.772Z,1.60
2022-12-31T07:02:13.784Z,1.70
2022-12-31T07:03:13.712Z,1.60
2022-12-31T07:04:13.698Z,1.30
2022-12-31T07:05:13.660Z,1.40
2022-12-31T07:06:13.657Z,1.50
2022-12-31T07:07:13.637Z,1.40
2022-12-31T07:08:13.618Z,1.40
2022-12-31T07:09:13.620Z,1.40
2022-12-31T07:10:13.608Z,1.70
2022-12-31T07:11:13.602Z,1.40
2022-12-31T07:12:13.572Z,1.20
2022-12-31T07:13:13.568Z,1.40
2022-12-31T07:14:13.540Z,1.50
2022-12-31T07:15:13.566Z,1.50
2022-12-31T07:16:13.599Z,1.60
2022-12-31T07:17:13.499Z,1.60
2022-12-31T07:18:13.496Z,1.60
2022-12-31T07:19:13.476Z,1.80
2022-12-31T07:20:13.457Z,1.70
2022-12-31T07:21:13.469Z,2.00
2022-12-31T07:22:13.469Z,2.10
2022-12-31T07:23:13.442Z,1.40
2022-12-31T07:24:13.419Z,2.30
2022-12-31T07:25:13.536Z,2.60
2022-12-31T07:26:13.390Z,3.20
2022-12-31T07:27:13.401Z,4.40
2022-12-31T07:28:13.359Z,5.50
2022-12-31T07:29:13.360Z,10.20
2022-12-31T07:30:13.358Z,4.20
2022-12-31T07:31:13.392Z,1.90
2022-12-31T07:32:13.315Z,1.60
2022-12-31T07:33:13.288Z,1.70
2022-12-31T07:34:13.287Z,1.50
2022-12-31T07:35:13.272Z,2.20
2022-12-31T07:36:13.259Z,1.40
2022-12-31T07:37:13.248Z,1.60
2022-12-31T07:38:13.243Z,1.40
2022-12-31T07:39:13.244Z,1.70
2022-12-31T07:40:13.210Z,1.30
2022-12-31T07:41:13.201Z,1.50
2022-12-31T07:42:13.176Z,1.40
2022-12-31T07:43:13.162Z,1.30
2022-12-31T07:44:13.173Z,1.40
2022-12-31T07:45:13.150Z,1.40
2022-12-31T07:46:13.233Z,1.20
2022-12-31T07:47:13.132Z,1.60
2022-12-31T07:48:13.105Z,1.70
2022-12-31T07:49:13.099Z,1.50
2022-12-31T07:50:13.319Z,1.40
2022-12-31T07:51:13.086Z,1.60
2022-12-31T07:52:13.063Z,1.30
2022-12-31T07:53:13.275Z,1.40
2022-12-31T07:54:14.405Z,1.40
2022-12-31T07:55:13.027Z,1.30
2022-12-31T07:56:13.023Z,1.50
2022-12-31T07:57:12.995Z,1.40
2022-12-31T07:58:12.977Z,1.40
2022-12-31T07:59:12.979Z,1.50
2022-12-31T08:00:12.970Z,1.70
2022-12-31T08:01:13.106Z,1.60
2022-12-31T08:02:13.046Z,1.50
2022-12-31T08:03:12.933Z,1.70
2022-12-31T08:04:12.914Z,1.40
2022-12-31T08:05:12.892Z,1.30
2022-12-31T08:06:12.890Z,1.30
2022-12-31T08:07:12.872Z,1.50
2022-12-31T08:08:12.861Z,1.60
2022-12-31T08:09:12.873Z,1.60
2022-12-31T08:10:17.779Z,1.70
2022-12-31T08:11:13.819Z,1.60
2022-12-31T08:12:12.791Z,1.50
2022-12-31T08:13:12.794Z,1.40
2022-12-31T08:14:12.766Z,1.50
2022-12-31T08:15:12.767Z,1.30
2022-12-31T08:16:12.814Z,1.60
2022-12-31T08:17:12.747Z,1.60
2022-12-31T08:18:12.729Z,1.50
2022-12-31T08:19:12.731Z,1.20
2022-12-31T08:20:12.706Z,1.60
2022-12-31T08:21:12.707Z,1.40
2022-12-31T08:22:12.678Z,1.60
2022-12-31T08:23:12.670Z,1.50
2022-12-31T08:24:12.633Z,1.60
2022-12-31T08:25:12.642Z,1.50
2022-12-31T08:26:12.636Z,1.60
2022-12-31T08:27:12.627Z,1.30
2022-12-31T08:28:12.629Z,1.40
2022-12-31T08:29:12.577Z,1.70
2022-12-31T08:30:12.563Z,1.50
2022-12-31T08:31:12.625Z,1.60
2022-12-31T08:32:12.556Z,1.40
2022-12-31T08:33:12.533Z,1.40
2022-12-31T08:34:12.520Z,1.30
2022-12-31T08:35:12.520Z,1.70
2022-12-31T08:36:12.512Z,1.50
2022-12-31T08:37:12.489Z,1.90
2022-12-31T08:38:12.466Z,1.40
2022-12-31T08:39:12.453Z,1.50
2022-12-31T08:40:12.439Z,1.50
2022-12-31T08:41:12.433Z,1.60
2022-12-31T08:42:12.419Z,1.50
2022-12-31T08:43:12.414Z,1.60
2022-12-31T08:44:12.396Z,1.60
2022-12-31T08:45:12.392Z,1.40
2022-12-31T08:46:12.374Z,1.60
2022-12-31T08:47:12.347Z,1.70
2022-12-31T08:48:12.349Z,1.50
2022-12-31T08:49:12.328Z,1.60
2022-12-31T08:50:12.300Z,1.30
2022-12-31T08:51:12.306Z,1.70
2022-12-31T08:52:12.304Z,1.30
2022-12-31T08:53:12.278Z,1.20
2022-12-31T08:54:12.285Z,1.40
2022-12-31T08:55:12.248Z,1.50
2022-12-31T08:56:12.243Z,1.70
2022-12-31T08:57:12.247Z,1.20
2022-12-31T08:58:12.201Z,1.30
2022-12-31T08:59:12.190Z,1.50
2022-12-31T09:00:12.182Z,1.70
2022-12-31T09:01:12.387Z,1.50
2022-12-31T09:02:12.181Z,1.90
2022-12-31T09:03:12.408Z,1.50
2022-12-31T09:04:12.170Z,1.40
2022-12-31T09:05:12.127Z,1.70
2022-12-31T09:06:12.122Z,1.40
2022-12-31T09:07:12.120Z,1.50
2022-12-31T09:08:12.073Z,2.00
2022-12-31T09:09:12.064Z,1.70
2022-12-31T09:10:12.055Z,1.40
2022-12-31T09:11:12.948Z,1.80
2022-12-31T09:12:12.024Z,1.70
2022-12-31T09:13:12.036Z,1.90
2022-12-31T09:14:12.005Z,3.10
2022-12-31T09:15:11.991Z,2.20
2022-12-31T09:16:12.049Z,2.20
2022-12-31T09:17:11.987Z,1.30
2022-12-31T09:18:11.950Z,2.20
2022-12-31T09:19:11.949Z,1.70
2022-12-31T09:20:11.921Z,2.60
2022-12-31T09:21:11.951Z,1.90
2022-12-31T09:22:11.892Z,6.80
2022-12-31T09:23:11.904Z,2.60
2022-12-31T09:24:11.869Z,1.80
2022-12-31T09:25:11.884Z,2.00
2022-12-31T09:26:11.857Z,2.80
2022-12-31T09:27:11.848Z,2.00
2022-12-31T09:28:11.823Z,1.90
2022-12-31T09:29:11.805Z,2.20
2022-12-31T09:30:11.796Z,2.70
2022-12-31T09:31:11.792Z,2.50
2022-12-31T09:32:11.758Z,3.60
2022-12-31T09:33:11.759Z,4.30
2022-12-31T09:34:11.742Z,2.80
2022-12-31T09:35:11.733Z,1.80
2022-12-31T09:36:11.714Z,1.70
2022-12-31T09:37:11.703Z,1.50
2022-12-31T09:38:12.110Z,1.70
2022-12-31T09:39:11.673Z,1.70
2022-12-31T09:40:11.646Z,1.70
2022-12-31T09:41:11.655Z,1.60
2022-12-31T09:42:11.629Z,1.40
2022-12-31T09:43:11.618Z,1.50
2022-12-31T09:44:11.616Z,1.40
2022-12-31T09:45:11.603Z,1.80
2022-12-31T09:46:11.662Z,1.30
2022-12-31T09:47:11.576Z,1.50
2022-12-31T09:48:11.557Z,1.60
2022-12-31T09:49:11.561Z,1.50
2022-12-31T09:50:11.551Z,1.90
2022-12-31T09:51:11.532Z,1.60
2022-12-31T09:52:11.514Z,1.40
2022-12-31T09:53:11.512Z,1.70
2022-12-31T09:54:11.507Z,1.50
2022-12-31T09:55:11.470Z,8.30
2022-12-31T09:56:11.473Z,2.10
2022-12-31T09:57:11.449Z,2.00
2022-12-31T09:58:11.443Z,2.00
2022-12-31T09:59:11.414Z,1.70
2022-12-31T10:00:11.401Z,1.60
2022-12-31T10:01:11.515Z,1.80
2022-12-31T10:02:11.718Z,1.70
2022-12-31T10:03:11.399Z,1.70
2022-12-31T10:04:11.375Z,1.50
2022-12-31T10:05:11.325Z,1.30
2022-12-31T10:06:11.334Z,1.40
2022-12-31T10:07:11.315Z,2.00
2022-12-31T10:08:11.297Z,1.50
2022-12-31T10:09:11.296Z,1.40
2022-12-31T10:10:11.265Z,1.70
2022-12-31T10:11:11.262Z,1.30
2022-12-31T10:12:11.247Z,1.70
2022-12-31T10:13:11.218Z,1.70
2022-12-31T10:14:11.212Z,1.40
2022-12-31T10:15:11.209Z,1.70
2022-12-31T10:16:11.437Z,1.40
2022-12-31T10:17:11.250Z,1.40
2022-12-31T10:18:11.157Z,1.50
2022-12-31T10:19:11.402Z,1.60
2022-12-31T10:20:11.150Z,1.40
2022-12-31T10:21:11.140Z,1.30
2022-12-31T10:22:11.110Z,1.50
2022-12-31T10:23:11.091Z,1.70
2022-12-31T10:24:11.072Z,1.50
2022-12-31T10:25:11.065Z,1.60
2022-12-31T10:26:11.071Z,1.70
2022-12-31T10:27:11.043Z,1.70
2022-12-31T10:28:11.023Z,1.40
2022-12-31T10:29:11.003Z,1.60
2022-12-31T10:30:11.233Z,1.70
2022-12-31T10:31:11.031Z,1.80
2022-12-31T10:32:10.971Z,1.50
2022-12-31T10:33:10.956Z,1.50
2022-12-31T10:34:10.942Z,1.70
2022-12-31T10:35:10.933Z,1.60
2022-12-31T10:36:10.928Z,1.40
2022-12-31T10:37:10.900Z,1.50
2022-12-31T10:38:10.897Z,1.60
2022-12-31T10:39:15.373Z,1.60
2022-12-31T10:40:11.877Z,1.60
2022-12-31T10:41:10.858Z,1.60
2022-12-31T10:42:10.838Z,1.70
2022-12-31T10:43:10.823Z,1.50
2022-12-31T10:44:10.824Z,1.70
2022-12-31T10:45:10.815Z,1.90
2022-12-31T10:46:12.035Z,1.50
2022-12-31T10:47:10.770Z,1.60
2022-12-31T10:48:10.763Z,1.40
2022-12-31T10:49:10.739Z,1.30
2022-12-31T10:50:10.740Z,1.60
2022-12-31T10:51:11.681Z,1.70
2022-12-31T10:52:10.739Z,2.70
2022-12-31T10:53:10.711Z,2.60
2022-12-31T10:54:10.720Z,2.30
2022-12-31T10:55:10.679Z,2.10
2022-12-31T10:56:10.671Z,1.80
2022-12-31T10:57:10.633Z,1.50
2022-12-31T10:58:10.620Z,1.60
2022-12-31T10:59:10.611Z,1.50
2022-12-31T11:00:10.609Z,1.40
2022-12-31T11:01:10.699Z,1.80
2022-12-31T11:02:10.758Z,1.40
2022-12-31T11:03:10.608Z,1.40
2022-12-31T11:04:10.539Z,1.30
2022-12-31T11:05:10.532Z,1.60
2022-12-31T11:06:10.539Z,1.50
2022-12-31T11:07:10.509Z,1.40
2022-12-31T11:08:10.495Z,1.50
2022-12-31T11:09:10.476Z,1.40
2022-12-31T11:10:10.473Z,1.80
2022-12-31T11:11:11.263Z,1.40
2022-12-31T11:12:10.437Z,1.40
2022-12-31T11:13:10.432Z,1.60
2022-12-31T11:14:10.427Z,1.40
2022-12-31T11:15:10.399Z,1.50
2022-12-31T11:16:10.784Z,1.50
2022-12-31T11:17:10.368Z,1.50
2022-12-31T11:18:10.362Z,1.60
2022-12-31T11:19:10.340Z,1.60
2022-12-31T11:20:10.330Z,1.50
2022-12-31T11:21:10.310Z,1.80
2022-12-31T11:22:10.467Z,1.50
2022-12-31T11:23:10.560Z,1.80
2022-12-31T11:24:10.276Z,1.40
2022-12-31T11:25:10.276Z,1.50
2022-12-31T11:26:10.238Z,1.80
2022-12-31T11:27:10.247Z,1.50
2022-12-31T11:28:10.232Z,1.40
2022-12-31T11:29:10.211Z,1.30
2022-12-31T11:30:10.208Z,1.30
2022-12-31T11:31:10.229Z,1.30
2022-12-31T11:32:10.187Z,1.50
2022-12-31T11:33:10.158Z,1.60
2022-12-31T11:34:10.412Z,1.60
2022-12-31T11:35:10.133Z,1.60
2022-12-31T11:36:10.130Z,1.60
2022-12-31T11:37:10.120Z,1.70
2022-12-31T11:38:10.103Z,1.80
2022-12-31T11:39:10.082Z,2.00
2022-12-31T11:40:10.069Z,2.10
2022-12-31T11:41:10.278Z,1.70
2022-12-31T11:42:10.058Z,2.10
2022-12-31T11:43:10.262Z,2.40
2022-12-31T11:44:10.007Z,1.90
2022-12-31T11:45:09.988Z,1.70
2022-12-31T11:46:10.018Z,1.70
2022-12-31T11:47:09.987Z,2.80
2022-12-31T11:49:09.945Z,2.30
2022-12-31T11:50:09.925Z,3.50
2022-12-31T11:51:10.170Z,3.10
2022-12-31T11:52:09.910Z,2.70
2022-12-31T11:53:09.885Z,3.00
2022-12-31T11:54:09.877Z,2.20
2022-12-31T11:55:09.858Z,1.90
2022-12-31T11:56:09.847Z,1.70
2022-12-31T11:57:09.851Z,1.70
2022-12-31T11:58:09.858Z,2.00
2022-12-31T11:59:13.165Z,1.70
2022-12-31T12:00:10.802Z,2.00
2022-12-31T12:01:09.797Z,2.90
2022-12-31T12:02:09.810Z,2.10
2022-12-31T12:03:09.852Z,2.20
2022-12-31T12:04:09.838Z,1.60
2022-12-31T12:05:11.333Z,1.80
2022-12-31T12:06:09.997Z,2.00
2022-12-31T12:07:09.737Z,1.30
2022-12-31T12:08:09.751Z,1.60
2022-12-31T12:09:09.687Z,1.50
2022-12-31T12:10:09.667Z,1.60
2022-12-31T12:11:09.648Z,1.50
2022-12-31T12:12:09.694Z,1.30
2022-12-31T12:13:09.617Z,1.60
2022-12-31T12:14:09.605Z,1.60
2022-12-31T12:15:09.603Z,2.70
2022-12-31T12:16:09.647Z,23.00
2022-12-31T12:17:09.579Z,27.40
2022-12-31T12:18:09.559Z,9.70
2022-12-31T12:19:09.541Z,2.60
2022-12-31T12:20:09.537Z,1.80
2022-12-31T12:21:09.528Z,1.50
2022-12-31T12:22:09.512Z,1.60
2022-12-31T12:23:09.494Z,1.80
2022-12-31T12:24:09.481Z,1.80
2022-12-31T12:25:09.482Z,1.40
2022-12-31T12:26:09.441Z,1.90
2022-12-31T12:27:09.455Z,1.80
2022-12-31T12:28:09.430Z,1.90
2022-12-31T12:29:09.417Z,1.90
2022-12-31T12:30:09.394Z,2.00
2022-12-31T12:31:09.392Z,1.70
2022-12-31T12:32:09.390Z,1.50
2022-12-31T12:33:09.371Z,1.70
2022-12-31T12:34:09.344Z,2.20
2022-12-31T12:35:09.325Z,1.40
2022-12-31T12:36:09.329Z,1.50
2022-12-31T12:37:09.321Z,1.50
2022-12-31T12:38:09.286Z,1.90
2022-12-31T12:39:09.272Z,2.00
2022-12-31T12:40:09.257Z,1.60
2022-12-31T12:41:09.248Z,1.60
2022-12-31T12:42:09.242Z,1.60
2022-12-31T12:43:09.222Z,1.80
2022-12-31T12:44:09.212Z,2.60
2022-12-31T12:45:09.188Z,2.70
2022-12-31T12:46:09.188Z,2.20
2022-12-31T12:47:09.249Z,1.80
2022-12-31T12:48:09.152Z,1.70
2022-12-31T12:49:09.130Z,1.20
2022-12-31T12:50:09.128Z,1.50
2022-12-31T12:51:09.120Z,1.60
2022-12-31T12:52:09.120Z,1.80
2022-12-31T12:53:09.095Z,1.60
2022-12-31T12:54:09.087Z,1.50
2022-12-31T12:55:09.065Z,1.90
2022-12-31T12:56:09.055Z,3.60
2022-12-31T12:57:09.061Z,2.20
2022-12-31T12:58:10.753Z,1.70
2022-12-31T12:59:09.022Z,1.80
2022-12-31T13:00:08.995Z,1.50
2022-12-31T13:01:09.280Z,1.80
2022-12-31T13:02:09.082Z,1.40
2022-12-31T13:03:09.004Z,1.40
2022-12-31T13:04:33.501Z,1.50
2022-12-31T13:05:09.942Z,1.80
2022-12-31T13:06:08.916Z,1.30
2022-12-31T13:07:08.909Z,1.80
2022-12-31T13:08:08.888Z,4.10
2022-12-31T13:09:08.876Z,12.00
2022-12-31T13:10:08.900Z,4.90
2022-12-31T13:11:08.852Z,8.80
2022-12-31T13:12:08.845Z,5.70
2022-12-31T13:13:25.213Z,6.00
2022-12-31T13:14:09.820Z,4.30
2022-12-31T13:15:08.795Z,3.00
2022-12-31T13:16:08.881Z,2.80
2022-12-31T13:17:08.808Z,2.80
2022-12-31T13:18:08.825Z,3.20
2022-12-31T13:19:08.745Z,2.30
2022-12-31T13:20:08.868Z,2.40
2022-12-31T13:21:08.870Z,2.20
2022-12-31T13:22:08.709Z,1.80
2022-12-31T13:23:08.697Z,1.80
2022-12-31T13:24:08.685Z,1.80
2022-12-31T13:25:08.662Z,1.80
2022-12-31T13:26:08.638Z,1.30
2022-12-31T13:27:08.644Z,1.60
2022-12-31T13:28:08.612Z,1.80
2022-12-31T13:29:08.615Z,1.70
2022-12-31T13:30:08.609Z,1.60
2022-12-31T13:31:08.574Z,1.70
2022-12-31T13:32:08.583Z,1.70
2022-12-31T13:33:08.576Z,1.70
2022-12-31T13:34:08.534Z,1.90
2022-12-31T13:35:08.685Z,2.00
2022-12-31T13:36:08.522Z,1.70
2022-12-31T13:37:08.923Z,1.80
2022-12-31T13:38:08.496Z,1.60
2022-12-31T13:39:08.468Z,1.60
2022-12-31T13:40:08.484Z,1.40
2022-12-31T13:41:08.462Z,1.50